CEB906 RPVE-RPLL
Flight info
| Callsign | CEB906 |
|---|---|
| Flight time | 0h 38m |
| Altitude | 24000 |
| Route | MINOR6A MINOR B473 LAIYA LAIYA5R |
| Aircraft | A21N/M-SDE3FGHIRWY/LB1 |
Departure
| Time | 2026-05-04 09:51 |
|---|---|
| Airport | Godofredo P. Ramos Airport (RPVE) |
Arrival
| Time | 2026-05-04 10:30 |
|---|---|
| Airport | Ninoy Aquino International Airport (RPLL) |
| Time | Latitude | Longitude | Altitude | Speed | Heading |
|---|---|---|---|---|---|
| 2026-05-04 09:46 | 11.92699 | 121.96460 | 30 ft | 0 kts | 153° |
| 2026-05-04 09:46 | 11.92699 | 121.96459 | 30 ft | 0 kts | 153° |
| 2026-05-04 09:47 | 11.92701 | 121.96458 | 30 ft | 2 kts | 153° |
| 2026-05-04 09:49 | 11.92751 | 121.96442 | 30 ft | 0 kts | 62° |
| 2026-05-04 09:51 | 11.92884 | 121.96253 | 30 ft | 62 kts | 243° |
| 2026-05-04 09:51 | 11.92559 | 121.95605 | 30 ft | 140 kts | 243° |
| 2026-05-04 09:51 | 11.92056 | 121.94591 | 357 ft | 167 kts | 241° |
| 2026-05-04 09:51 | 11.91544 | 121.93567 | 1108 ft | 161 kts | 241° |
| 2026-05-04 09:52 | 11.91244 | 121.92502 | 1798 ft | 156 kts | 280° |
| 2026-05-04 09:52 | 11.91742 | 121.91601 | 2126 ft | 147 kts | 332° |
| 2026-05-04 09:52 | 11.92686 | 121.91384 | 2351 ft | 141 kts | 17° |
| 2026-05-04 09:52 | 11.93563 | 121.91833 | 2606 ft | 144 kts | 47° |
| 2026-05-04 09:53 | 11.94285 | 121.92587 | 2880 ft | 155 kts | 48° |
| 2026-05-04 09:53 | 11.95097 | 121.93404 | 3117 ft | 171 kts | 46° |
| 2026-05-04 09:53 | 11.95990 | 121.94269 | 3395 ft | 185 kts | 45° |
| 2026-05-04 09:53 | 11.96979 | 121.95204 | 3675 ft | 201 kts | 45° |
| 2026-05-04 09:54 | 11.98059 | 121.96214 | 3929 ft | 220 kts | 44° |
| 2026-05-04 09:54 | 11.99249 | 121.97317 | 4239 ft | 238 kts | 44° |
| 2026-05-04 09:54 | 12.00485 | 121.98457 | 4939 ft | 239 kts | 44° |
| 2026-05-04 09:54 | 12.01717 | 121.99590 | 5639 ft | 241 kts | 44° |
| 2026-05-04 09:55 | 12.02960 | 122.00736 | 6300 ft | 244 kts | 43° |
| 2026-05-04 09:55 | 12.04228 | 122.01904 | 6938 ft | 247 kts | 43° |
| 2026-05-04 09:55 | 12.05507 | 122.03082 | 7565 ft | 251 kts | 43° |
| 2026-05-04 09:55 | 12.06799 | 122.04273 | 8158 ft | 255 kts | 43° |
| 2026-05-04 09:56 | 12.08187 | 122.05466 | 8741 ft | 259 kts | 38° |
| 2026-05-04 09:56 | 12.09697 | 122.06537 | 9210 ft | 268 kts | 33° |
| 2026-05-04 09:56 | 12.11343 | 122.07574 | 9519 ft | 283 kts | 32° |
| 2026-05-04 09:56 | 12.13067 | 122.08640 | 10025 ft | 289 kts | 32° |
| 2026-05-04 09:57 | 12.14823 | 122.09727 | 10523 ft | 296 kts | 32° |
| 2026-05-04 09:57 | 12.16669 | 122.10873 | 10782 ft | 311 kts | 33° |
| 2026-05-04 09:57 | 12.18573 | 122.12060 | 11030 ft | 325 kts | 33° |
| 2026-05-04 09:57 | 12.20583 | 122.13313 | 11284 ft | 338 kts | 33° |
| 2026-05-04 09:58 | 12.22623 | 122.14584 | 11675 ft | 345 kts | 33° |
| 2026-05-04 09:58 | 12.24677 | 122.15863 | 12204 ft | 348 kts | 33° |
| 2026-05-04 09:58 | 12.26782 | 122.17172 | 12722 ft | 350 kts | 33° |
| 2026-05-04 10:00 | 12.42746 | 122.19488 | 15890 ft | 383 kts | 327° |
| 2026-05-04 10:00 | 12.44936 | 122.17940 | 16289 ft | 386 kts | 327° |
| 2026-05-04 10:02 | 12.60798 | 122.06849 | 19078 ft | 400 kts | 327° |
| 2026-05-04 10:04 | 12.77670 | 121.95111 | 19877 ft | 452 kts | 327° |
| 2026-05-04 10:04 | 12.80305 | 121.93278 | 19869 ft | 461 kts | 327° |
| 2026-05-04 10:04 | 12.83010 | 121.91395 | 19869 ft | 468 kts | 327° |
| 2026-05-04 10:04 | 12.85683 | 121.89532 | 19869 ft | 470 kts | 327° |
| 2026-05-04 10:05 | 12.88388 | 121.87647 | 19870 ft | 470 kts | 327° |
| 2026-05-04 10:05 | 12.91035 | 121.85801 | 19874 ft | 470 kts | 327° |
| 2026-05-04 10:05 | 12.93754 | 121.83903 | 19868 ft | 469 kts | 327° |
| 2026-05-04 10:05 | 12.96479 | 121.82000 | 19869 ft | 469 kts | 327° |
| 2026-05-04 10:06 | 12.99221 | 121.80086 | 19871 ft | 468 kts | 327° |
| 2026-05-04 10:06 | 13.01942 | 121.78185 | 19879 ft | 468 kts | 327° |
| 2026-05-04 10:06 | 13.04667 | 121.76283 | 19875 ft | 468 kts | 327° |
| 2026-05-04 10:08 | 13.20837 | 121.64980 | 19878 ft | 469 kts | 327° |
| 2026-05-04 10:08 | 13.23523 | 121.63100 | 19883 ft | 469 kts | 327° |
| 2026-05-04 10:08 | 13.26245 | 121.61195 | 19883 ft | 468 kts | 327° |
| 2026-05-04 10:08 | 13.28868 | 121.59358 | 19878 ft | 450 kts | 327° |
| 2026-05-04 10:09 | 13.31386 | 121.57589 | 19882 ft | 430 kts | 327° |
| 2026-05-04 10:09 | 13.33811 | 121.55887 | 19724 ft | 417 kts | 327° |
| 2026-05-04 10:09 | 13.36189 | 121.54217 | 19486 ft | 406 kts | 327° |
| 2026-05-04 10:09 | 13.38501 | 121.52594 | 19245 ft | 400 kts | 327° |
| 2026-05-04 10:10 | 13.40775 | 121.51000 | 18999 ft | 398 kts | 327° |
| 2026-05-04 10:10 | 13.43082 | 121.49380 | 18725 ft | 397 kts | 327° |
| 2026-05-04 10:10 | 13.45351 | 121.47788 | 18351 ft | 395 kts | 327° |
| 2026-05-04 10:10 | 13.47597 | 121.46211 | 17919 ft | 393 kts | 327° |
| 2026-05-04 10:11 | 13.49874 | 121.44611 | 17448 ft | 390 kts | 328° |
| 2026-05-04 10:11 | 13.52091 | 121.43052 | 17069 ft | 386 kts | 328° |
| 2026-05-04 10:11 | 13.54261 | 121.41529 | 16595 ft | 384 kts | 328° |
| 2026-05-04 10:11 | 13.56469 | 121.39980 | 16112 ft | 381 kts | 328° |
| 2026-05-04 10:12 | 13.58690 | 121.38429 | 15663 ft | 378 kts | 328° |
| 2026-05-04 10:12 | 13.60822 | 121.36947 | 15224 ft | 375 kts | 328° |
| 2026-05-04 10:12 | 13.62994 | 121.35440 | 14756 ft | 372 kts | 328° |
| 2026-05-04 10:12 | 13.65142 | 121.33949 | 14293 ft | 369 kts | 328° |
| 2026-05-04 10:13 | 13.67257 | 121.32478 | 13842 ft | 367 kts | 328° |
| 2026-05-04 10:13 | 13.69344 | 121.31024 | 13379 ft | 364 kts | 328° |
| 2026-05-04 10:13 | 13.71447 | 121.29559 | 12935 ft | 361 kts | 328° |
| 2026-05-04 10:13 | 13.73516 | 121.28117 | 12490 ft | 358 kts | 328° |
| 2026-05-04 10:14 | 13.75583 | 121.26675 | 12047 ft | 355 kts | 328° |
| 2026-05-04 10:14 | 13.77634 | 121.25243 | 11614 ft | 352 kts | 328° |
| 2026-05-04 10:16 | 13.90953 | 121.15938 | 9744 ft | 296 kts | 329° |
| 2026-05-04 10:16 | 13.92636 | 121.14761 | 9471 ft | 291 kts | 329° |
| 2026-05-04 10:16 | 13.94342 | 121.13648 | 9115 ft | 287 kts | 335° |
| 2026-05-04 10:16 | 13.96149 | 121.12795 | 8748 ft | 283 kts | 343° |
| 2026-05-04 10:17 | 13.98033 | 121.12218 | 8364 ft | 280 kts | 351° |
| 2026-05-04 10:17 | 13.99952 | 121.11828 | 8078 ft | 276 kts | 352° |
| 2026-05-04 10:19 | 14.11913 | 121.06907 | 6510 ft | 281 kts | 285° |
| 2026-05-04 10:19 | 14.12236 | 121.04962 | 6347 ft | 273 kts | 279° |
| 2026-05-04 10:19 | 14.12453 | 121.03048 | 6177 ft | 264 kts | 278° |
| 2026-05-04 10:19 | 14.12644 | 121.01201 | 6012 ft | 255 kts | 277° |
| 2026-05-04 10:20 | 14.12824 | 120.99423 | 5835 ft | 248 kts | 277° |
| 2026-05-04 10:20 | 14.13000 | 120.97681 | 5560 ft | 246 kts | 277° |
| 2026-05-04 10:20 | 14.13181 | 120.95921 | 5236 ft | 245 kts | 277° |
| 2026-05-04 10:20 | 14.13446 | 120.94208 | 5018 ft | 242 kts | 292° |
| 2026-05-04 10:21 | 14.14350 | 120.92790 | 4804 ft | 234 kts | 320° |
| 2026-05-04 10:21 | 14.15594 | 120.91727 | 4526 ft | 231 kts | 326° |
| 2026-05-04 10:21 | 14.16895 | 120.90733 | 4205 ft | 231 kts | 327° |
| 2026-05-04 10:21 | 14.18202 | 120.89765 | 3898 ft | 230 kts | 327° |
| 2026-05-04 10:22 | 14.20796 | 120.87853 | 3545 ft | 229 kts | 328° |
| 2026-05-04 10:22 | 14.22097 | 120.86891 | 3538 ft | 230 kts | 328° |
| 2026-05-04 10:22 | 14.23397 | 120.85930 | 3532 ft | 231 kts | 328° |
| 2026-05-04 10:23 | 14.24712 | 120.84953 | 3531 ft | 231 kts | 328° |
| 2026-05-04 10:23 | 14.26016 | 120.83987 | 3531 ft | 231 kts | 328° |
| 2026-05-04 10:25 | 14.35499 | 120.80920 | 2524 ft | 213 kts | 27° |
| 2026-05-04 10:25 | 14.36860 | 120.81555 | 2523 ft | 213 kts | 27° |
| 2026-05-04 10:25 | 14.38204 | 120.82185 | 2517 ft | 213 kts | 27° |
| 2026-05-04 10:25 | 14.39556 | 120.82832 | 2515 ft | 212 kts | 33° |
| 2026-05-04 10:26 | 14.40666 | 120.83829 | 2512 ft | 209 kts | 53° |
| 2026-05-04 10:26 | 14.41484 | 120.85050 | 2519 ft | 209 kts | 60° |
| 2026-05-04 10:26 | 14.42161 | 120.86242 | 2523 ft | 208 kts | 62° |
| 2026-05-04 10:26 | 14.42912 | 120.87617 | 2564 ft | 211 kts | 62° |
| 2026-05-04 10:27 | 14.43621 | 120.88913 | 2476 ft | 201 kts | 62° |
| 2026-05-04 10:27 | 14.44296 | 120.90134 | 2179 ft | 193 kts | 61° |
| 2026-05-04 10:27 | 14.44942 | 120.91293 | 1944 ft | 173 kts | 62° |
| 2026-05-04 10:27 | 14.45513 | 120.92319 | 1690 ft | 157 kts | 61° |
| 2026-05-04 10:28 | 14.46040 | 120.93265 | 1477 ft | 151 kts | 62° |
| 2026-05-04 10:28 | 14.46560 | 120.94202 | 1302 ft | 150 kts | 61° |
| 2026-05-04 10:28 | 14.47080 | 120.95136 | 1122 ft | 149 kts | 63° |
| 2026-05-04 10:28 | 14.47593 | 120.96064 | 952 ft | 149 kts | 60° |
| 2026-05-04 10:29 | 14.48109 | 120.96994 | 761 ft | 148 kts | 61° |
| 2026-05-04 10:29 | 14.48618 | 120.97912 | 571 ft | 148 kts | 60° |
| 2026-05-04 10:29 | 14.49134 | 120.98840 | 383 ft | 147 kts | 62° |
| 2026-05-04 10:29 | 14.49638 | 120.99749 | 192 ft | 143 kts | 62° |
| 2026-05-04 10:30 | 14.50131 | 121.00639 | 100 ft | 137 kts | 61° |
| 2026-05-04 10:30 | 14.50543 | 121.01384 | 82 ft | 86 kts | 59° |
| 2026-05-04 10:30 | 14.50761 | 121.01713 | 82 ft | 34 kts | 42° |
| 2026-05-04 10:30 | 14.50890 | 121.01779 | 82 ft | 11 kts | 321° |
| 2026-05-04 10:31 | 14.50952 | 121.01724 | 82 ft | 12 kts | 316° |
| 2026-05-04 10:31 | 14.51014 | 121.01661 | 82 ft | 12 kts | 314° |
| 2026-05-04 10:32 | 14.51201 | 121.01466 | 82 ft | 13 kts | 315° |
| 2026-05-04 10:33 | 14.51280 | 121.01434 | 82 ft | 12 kts | 29° |
| 2026-05-04 10:33 | 14.51341 | 121.01502 | 82 ft | 13 kts | 51° |
| 2026-05-04 10:33 | 14.51416 | 121.01525 | 82 ft | 11 kts | 323° |
| 2026-05-04 10:33 | 14.51531 | 121.01407 | 82 ft | 12 kts | 315° |
| 2026-05-04 10:34 | 14.51621 | 121.01314 | 82 ft | 1 kts | 315° |
| 2026-05-04 10:34 | 14.51622 | 121.01313 | 82 ft | 0 kts | 315° |
| 2026-05-04 10:35 | 14.51626 | 121.01308 | 82 ft | 4 kts | 315° |
| 2026-05-04 10:35 | 14.51878 | 121.01051 | 82 ft | 13 kts | 327° |
| 2026-05-04 10:35 | 14.51937 | 121.01101 | 82 ft | 13 kts | 77° |
| 2026-05-04 10:35 | 14.51980 | 121.01168 | 82 ft | 6 kts | 45° |
| 2026-05-04 10:36 | 14.51991 | 121.01180 | 82 ft | 0 kts | 45° |